sensor_id;sensor_type;location;lat;lon;timestamp;temperature;humidity
15900;DHT22;8048;50.644;6.184;2024-01-15T00:00:40;-1.30;99.90
15900;DHT22;8048;50.644;6.184;2024-01-15T00:03:05;-1.20;99.90
15900;DHT22;8048;50.644;6.184;2024-01-15T00:05:31;-1.20;99.90
15900;DHT22;8048;50.644;6.184;2024-01-15T00:07:56;-1.20;99.90
15900;DHT22;8048;50.644;6.184;2024-01-15T00:10:23;-1.20;99.90
15900;DHT22;8048;50.644;6.184;2024-01-15T00:12:48;-1.20;99.90
15900;DHT22;8048;50.644;6.184;2024-01-15T00:15:14;-1.20;99.90
15900;DHT22;8048;50.644;6.184;2024-01-15T00:17:40;-1.10;99.90
15900;DHT22;8048;50.644;6.184;2024-01-15T00:20:06;-1.20;99.90
15900;DHT22;8048;50.644;6.184;2024-01-15T00:22:32;-1.10;99.90
15900;DHT22;8048;50.644;6.184;2024-01-15T00:24:58;-1.20;99.90
15900;DHT22;8048;50.644;6.184;2024-01-15T00:27:23;-1.20;99.90
15900;DHT22;8048;50.644;6.184;2024-01-15T00:29:49;-1.10;99.90
15900;DHT22;8048;50.644;6.184;2024-01-15T00:32:19;-1.10;99.90
15900;DHT22;8048;50.644;6.184;2024-01-15T00:34:45;-1.10;99.90
15900;DHT22;8048;50.644;6.184;2024-01-15T00:37:11;-1.10;99.90
15900;DHT22;8048;50.644;6.184;2024-01-15T00:39:37;-1.10;99.90
15900;DHT22;8048;50.644;6.184;2024-01-15T00:42:02;-1.10;99.90
15900;DHT22;8048;50.644;6.184;2024-01-15T00:44:28;-1.10;99.90
15900;DHT22;8048;50.644;6.184;2024-01-15T00:46:54;-1.10;99.90
15900;DHT22;8048;50.644;6.184;2024-01-15T00:49:19;-1.10;99.90
15900;DHT22;8048;50.644;6.184;2024-01-15T00:51:45;-1.10;99.90
15900;DHT22;8048;50.644;6.184;2024-01-15T00:54:10;-1.10;99.90
15900;DHT22;8048;50.644;6.184;2024-01-15T00:56:36;-1.10;99.90
15900;DHT22;8048;50.644;6.184;2024-01-15T00:59:02;-1.00;99.90
15900;DHT22;8048;50.644;6.184;2024-01-15T01:01:27;-1.00;99.90
15900;DHT22;8048;50.644;6.184;2024-01-15T01:03:53;-1.00;99.90
15900;DHT22;8048;50.644;6.184;2024-01-15T01:06:19;-1.00;99.90
15900;DHT22;8048;50.644;6.184;2024-01-15T01:08:44;-1.00;99.90
15900;DHT22;8048;50.644;6.184;2024-01-15T01:11:16;-1.00;99.90
15900;DHT22;8048;50.644;6.184;2024-01-15T01:13:42;-1.00;99.90
15900;DHT22;8048;50.644;6.184;2024-01-15T01:16:07;-1.00;99.90
15900;DHT22;8048;50.644;6.184;2024-01-15T01:18:33;-1.00;99.90
15900;DHT22;8048;50.644;6.184;2024-01-15T01:20:59;-1.00;99.90
15900;DHT22;8048;50.644;6.184;2024-01-15T01:23:24;-1.00;99.90
15900;DHT22;8048;50.644;6.184;2024-01-15T01:25:50;-1.00;99.90
15900;DHT22;8048;50.644;6.184;2024-01-15T01:28:15;-1.00;99.90
15900;DHT22;8048;50.644;6.184;2024-01-15T01:30:41;-1.00;99.90
15900;DHT22;8048;50.644;6.184;2024-01-15T01:33:06;-1.00;99.90
15900;DHT22;8048;50.644;6.184;2024-01-15T01:35:32;-0.90;99.90
15900;DHT22;8048;50.644;6.184;2024-01-15T01:37:57;-0.90;99.90
15900;DHT22;8048;50.644;6.184;2024-01-15T01:40:23;-1.00;99.90
15900;DHT22;8048;50.644;6.184;2024-01-15T01:42:49;-0.90;99.90
15900;DHT22;8048;50.644;6.184;2024-01-15T01:45:15;-0.90;99.90
15900;DHT22;8048;50.644;6.184;2024-01-15T01:47:41;-0.90;99.90
15900;DHT22;8048;50.644;6.184;2024-01-15T01:50:07;-0.90;99.90
15900;DHT22;8048;50.644;6.184;2024-01-15T01:52:33;-0.90;99.90
15900;DHT22;8048;50.644;6.184;2024-01-15T01:55:00;-0.90;99.90
15900;DHT22;8048;50.644;6.184;2024-01-15T01:57:27;-0.90;99.90
15900;DHT22;8048;50.644;6.184;2024-01-15T01:59:54;-0.90;99.90
15900;DHT22;8048;50.644;6.184;2024-01-15T02:02:20;-0.90;99.90
15900;DHT22;8048;50.644;6.184;2024-01-15T02:04:47;-0.90;99.90
15900;DHT22;8048;50.644;6.184;2024-01-15T02:07:13;-0.90;99.90
15900;DHT22;8048;50.644;6.184;2024-01-15T02:09:39;-0.90;99.90
15900;DHT22;8048;50.644;6.184;2024-01-15T02:12:05;-0.90;99.90
15900;DHT22;8048;50.644;6.184;2024-01-15T02:14:31;-0.90;99.90
15900;DHT22;8048;50.644;6.184;2024-01-15T02:16:56;-0.90;99.90
15900;DHT22;8048;50.644;6.184;2024-01-15T02:19:22;-0.90;99.90
15900;DHT22;8048;50.644;6.184;2024-01-15T02:21:47;-0.90;99.90
15900;DHT22;8048;50.644;6.184;2024-01-15T02:24:13;-0.90;99.90
15900;DHT22;8048;50.644;6.184;2024-01-15T02:26:38;-0.90;99.90
15900;DHT22;8048;50.644;6.184;2024-01-15T02:29:06;-0.90;99.90
15900;DHT22;8048;50.644;6.184;2024-01-15T02:31:32;-0.90;99.90
15900;DHT22;8048;50.644;6.184;2024-01-15T02:33:58;-0.80;99.90
15900;DHT22;8048;50.644;6.184;2024-01-15T02:36:23;-0.80;99.90
15900;DHT22;8048;50.644;6.184;2024-01-15T02:38:49;-0.80;99.90
15900;DHT22;8048;50.644;6.184;2024-01-15T02:41:14;-0.80;99.90
15900;DHT22;8048;50.644;6.184;2024-01-15T02:43:40;-0.80;99.90
15900;DHT22;8048;50.644;6.184;2024-01-15T02:46:06;-0.80;99.90
15900;DHT22;8048;50.644;6.184;2024-01-15T02:48:32;-0.80;99.90
15900;DHT22;8048;50.644;6.184;2024-01-15T02:50:58;-0.80;99.90
15900;DHT22;8048;50.644;6.184;2024-01-15T02:53:24;-0.80;99.90
15900;DHT22;8048;50.644;6.184;2024-01-15T02:55:49;-0.80;99.90
15900;DHT22;8048;50.644;6.184;2024-01-15T02:58:15;-0.80;99.90
15900;DHT22;8048;50.644;6.184;2024-01-15T03:00:40;-0.70;99.90
15900;DHT22;8048;50.644;6.184;2024-01-15T03:03:06;-0.70;99.90
15900;DHT22;8048;50.644;6.184;2024-01-15T03:05:32;-0.60;99.90
15900;DHT22;8048;50.644;6.184;2024-01-15T03:07:57;-0.70;99.90
15900;DHT22;8048;50.644;6.184;2024-01-15T03:10:23;-0.70;99.90
15900;DHT22;8048;50.644;6.184;2024-01-15T03:12:48;-0.70;99.90
15900;DHT22;8048;50.644;6.184;2024-01-15T03:15:14;-0.70;99.90
15900;DHT22;8048;50.644;6.184;2024-01-15T03:17:41;-0.70;99.90
15900;DHT22;8048;50.644;6.184;2024-01-15T03:20:07;-0.70;99.90
15900;DHT22;8048;50.644;6.184;2024-01-15T03:22:32;-0.60;99.90
15900;DHT22;8048;50.644;6.184;2024-01-15T03:24:58;-0.60;99.90
15900;DHT22;8048;50.644;6.184;2024-01-15T03:27:24;-0.70;99.90
15900;DHT22;8048;50.644;6.184;2024-01-15T03:29:49;-0.60;99.90
15900;DHT22;8048;50.644;6.184;2024-01-15T03:32:15;-0.60;99.90
15900;DHT22;8048;50.644;6.184;2024-01-15T03:34:41;-0.70;99.90
15900;DHT22;8048;50.644;6.184;2024-01-15T03:37:07;-0.70;99.90
15900;DHT22;8048;50.644;6.184;2024-01-15T03:39:32;-0.70;99.90
15900;DHT22;8048;50.644;6.184;2024-01-15T03:41:58;-0.70;99.90
15900;DHT22;8048;50.644;6.184;2024-01-15T03:44:23;-0.60;99.90
15900;DHT22;8048;50.644;6.184;2024-01-15T03:46:49;-0.60;99.90
15900;DHT22;8048;50.644;6.184;2024-01-15T03:49:15;-0.60;99.90
15900;DHT22;8048;50.644;6.184;2024-01-15T03:51:40;-0.60;99.90
15900;DHT22;8048;50.644;6.184;2024-01-15T03:54:06;-0.60;99.90
15900;DHT22;8048;50.644;6.184;2024-01-15T03:56:31;-0.60;99.90
15900;DHT22;8048;50.644;6.184;2024-01-15T03:58:57;-0.60;99.90
15900;DHT22;8048;50.644;6.184;2024-01-15T04:01:23;-0.60;99.90
15900;DHT22;8048;50.644;6.184;2024-01-15T04:03:48;-0.50;99.90
15900;DHT22;8048;50.644;6.184;2024-01-15T04:06:14;-0.50;99.90
15900;DHT22;8048;50.644;6.184;2024-01-15T04:08:39;-0.60;99.90
15900;DHT22;8048;50.644;6.184;2024-01-15T04:11:05;-0.50;99.90
15900;DHT22;8048;50.644;6.184;2024-01-15T04:13:33;-0.50;99.90
15900;DHT22;8048;50.644;6.184;2024-01-15T04:16:00;-0.50;99.90
15900;DHT22;8048;50.644;6.184;2024-01-15T04:18:25;-0.60;99.90
15900;DHT22;8048;50.644;6.184;2024-01-15T04:20:51;-0.50;99.90
15900;DHT22;8048;50.644;6.184;2024-01-15T04:23:17;-0.50;99.90
15900;DHT22;8048;50.644;6.184;2024-01-15T04:25:42;-0.50;99.90
15900;DHT22;8048;50.644;6.184;2024-01-15T04:28:11;-0.50;99.90
15900;DHT22;8048;50.644;6.184;2024-01-15T04:30:37;-0.50;99.90
15900;DHT22;8048;50.644;6.184;2024-01-15T04:33:03;-0.50;99.90
15900;DHT22;8048;50.644;6.184;2024-01-15T04:35:29;-0.50;99.90
15900;DHT22;8048;50.644;6.184;2024-01-15T04:37:55;-0.50;99.90
15900;DHT22;8048;50.644;6.184;2024-01-15T04:40:21;-0.50;99.90
15900;DHT22;8048;50.644;6.184;2024-01-15T04:42:46;-0.50;99.90
15900;DHT22;8048;50.644;6.184;2024-01-15T04:45:12;-0.40;99.90
15900;DHT22;8048;50.644;6.184;2024-01-15T04:47:37;-0.40;99.90
15900;DHT22;8048;50.644;6.184;2024-01-15T04:50:04;-0.40;99.90
15900;DHT22;8048;50.644;6.184;2024-01-15T04:52:30;-0.50;99.90
15900;DHT22;8048;50.644;6.184;2024-01-15T04:54:55;-0.40;99.90
15900;DHT22;8048;50.644;6.184;2024-01-15T04:57:21;-0.40;99.90
15900;DHT22;8048;50.644;6.184;2024-01-15T04:59:47;-0.40;99.90
15900;DHT22;8048;50.644;6.184;2024-01-15T05:02:13;-0.50;99.90
15900;DHT22;8048;50.644;6.184;2024-01-15T05:04:38;-0.40;99.90
15900;DHT22;8048;50.644;6.184;2024-01-15T05:07:05;-0.40;99.90
15900;DHT22;8048;50.644;6.184;2024-01-15T05:09:30;-0.40;99.90
15900;DHT22;8048;50.644;6.184;2024-01-15T05:11:55;-0.40;99.90
15900;DHT22;8048;50.644;6.184;2024-01-15T05:14:21;-0.40;99.90
15900;DHT22;8048;50.644;6.184;2024-01-15T05:16:47;-0.40;99.90
15900;DHT22;8048;50.644;6.184;2024-01-15T05:19:13;-0.40;99.90
15900;DHT22;8048;50.644;6.184;2024-01-15T05:21:39;-0.40;99.90
15900;DHT22;8048;50.644;6.184;2024-01-15T05:24:04;-0.30;99.90
15900;DHT22;8048;50.644;6.184;2024-01-15T05:26:30;-0.40;99.90
15900;DHT22;8048;50.644;6.184;2024-01-15T05:28:55;-0.30;99.90
15900;DHT22;8048;50.644;6.184;2024-01-15T05:31:21;-0.40;99.90
15900;DHT22;8048;50.644;6.184;2024-01-15T05:33:46;-0.40;99.90
15900;DHT22;8048;50.644;6.184;2024-01-15T05:36:12;-0.40;99.90
15900;DHT22;8048;50.644;6.184;2024-01-15T05:38:38;-0.40;99.90
15900;DHT22;8048;50.644;6.184;2024-01-15T05:41:04;-0.40;99.90
15900;DHT22;8048;50.644;6.184;2024-01-15T05:43:30;-0.30;99.90
15900;DHT22;8048;50.644;6.184;2024-01-15T05:45:55;-0.30;99.90
15900;DHT22;8048;50.644;6.184;2024-01-15T05:48:21;-0.30;99.90
15900;DHT22;8048;50.644;6.184;2024-01-15T05:50:46;-0.20;99.90
15900;DHT22;8048;50.644;6.184;2024-01-15T05:53:12;-0.20;99.90
15900;DHT22;8048;50.644;6.184;2024-01-15T05:55:37;-0.20;99.90
15900;DHT22;8048;50.644;6.184;2024-01-15T05:58:06;-0.30;99.90
15900;DHT22;8048;50.644;6.184;2024-01-15T06:00:31;-0.20;99.90
15900;DHT22;8048;50.644;6.184;2024-01-15T06:02:58;-0.20;99.90
15900;DHT22;8048;50.644;6.184;2024-01-15T06:05:24;-0.20;99.90
15900;DHT22;8048;50.644;6.184;2024-01-15T06:07:50;-0.20;99.90
15900;DHT22;8048;50.644;6.184;2024-01-15T06:10:15;-0.20;99.90
15900;DHT22;8048;50.644;6.184;2024-01-15T06:12:43;-0.20;99.90
15900;DHT22;8048;50.644;6.184;2024-01-15T06:15:09;-0.20;99.90
15900;DHT22;8048;50.644;6.184;2024-01-15T06:17:35;-0.20;99.90
15900;DHT22;8048;50.644;6.184;2024-01-15T06:20:01;-0.20;99.90
15900;DHT22;8048;50.644;6.184;2024-01-15T06:22:27;-0.20;99.90
15900;DHT22;8048;50.644;6.184;2024-01-15T06:24:52;-0.20;99.90
15900;DHT22;8048;50.644;6.184;2024-01-15T06:27:18;-0.20;99.90
15900;DHT22;8048;50.644;6.184;2024-01-15T06:29:46;-0.20;99.90
15900;DHT22;8048;50.644;6.184;2024-01-15T06:32:14;-0.20;99.90
15900;DHT22;8048;50.644;6.184;2024-01-15T06:34:40;-0.20;99.90
15900;DHT22;8048;50.644;6.184;2024-01-15T06:37:05;-0.20;99.90
15900;DHT22;8048;50.644;6.184;2024-01-15T06:39:31;-0.20;99.90
15900;DHT22;8048;50.644;6.184;2024-01-15T06:41:57;-0.20;99.90
15900;DHT22;8048;50.644;6.184;2024-01-15T06:44:23;-0.20;99.90
15900;DHT22;8048;50.644;6.184;2024-01-15T06:46:48;-0.20;99.90
15900;DHT22;8048;50.644;6.184;2024-01-15T06:49:14;-0.20;99.90
15900;DHT22;8048;50.644;6.184;2024-01-15T06:51:39;-0.20;99.90
15900;DHT22;8048;50.644;6.184;2024-01-15T06:54:05;-0.20;99.90
15900;DHT22;8048;50.644;6.184;2024-01-15T06:56:34;-0.20;99.90
15900;DHT22;8048;50.644;6.184;2024-01-15T06:58:59;-0.20;99.90
15900;DHT22;8048;50.644;6.184;2024-01-15T07:01:25;-0.20;99.90
15900;DHT22;8048;50.644;6.184;2024-01-15T07:03:50;-0.20;99.90
15900;DHT22;8048;50.644;6.184;2024-01-15T07:06:16;-0.30;99.90
15900;DHT22;8048;50.644;6.184;2024-01-15T07:08:42;-0.30;99.90
15900;DHT22;8048;50.644;6.184;2024-01-15T07:11:08;-0.20;99.90
15900;DHT22;8048;50.644;6.184;2024-01-15T07:13:34;-0.20;99.90
15900;DHT22;8048;50.644;6.184;2024-01-15T07:16:01;-0.20;99.90
15900;DHT22;8048;50.644;6.184;2024-01-15T07:18:26;-0.20;99.90
15900;DHT22;8048;50.644;6.184;2024-01-15T07:20:52;-0.30;99.90
15900;DHT22;8048;50.644;6.184;2024-01-15T07:23:17;-0.30;99.90
15900;DHT22;8048;50.644;6.184;2024-01-15T07:25:43;-0.30;99.90
15900;DHT22;8048;50.644;6.184;2024-01-15T07:28:09;-0.30;99.90
15900;DHT22;8048;50.644;6.184;2024-01-15T07:30:34;-0.30;99.90
15900;DHT22;8048;50.644;6.184;2024-01-15T07:33:00;-0.30;99.90
15900;DHT22;8048;50.644;6.184;2024-01-15T07:35:26;-0.20;99.90
15900;DHT22;8048;50.644;6.184;2024-01-15T07:37:51;-0.30;99.90
15900;DHT22;8048;50.644;6.184;2024-01-15T07:40:17;-0.30;99.90
15900;DHT22;8048;50.644;6.184;2024-01-15T07:42:42;-0.20;99.90
15900;DHT22;8048;50.644;6.184;2024-01-15T07:45:09;-0.30;99.90
15900;DHT22;8048;50.644;6.184;2024-01-15T07:47:35;-0.20;99.90
15900;DHT22;8048;50.644;6.184;2024-01-15T07:50:00;-0.30;99.90
15900;DHT22;8048;50.644;6.184;2024-01-15T07:52:26;-0.20;99.90
15900;DHT22;8048;50.644;6.184;2024-01-15T07:54:51;-0.30;99.90
15900;DHT22;8048;50.644;6.184;2024-01-15T07:57:17;-0.30;99.90
15900;DHT22;8048;50.644;6.184;2024-01-15T07:59:43;-0.30;99.90
15900;DHT22;8048;50.644;6.184;2024-01-15T08:02:08;-0.30;99.90
15900;DHT22;8048;50.644;6.184;2024-01-15T08:04:34;-0.20;99.90
15900;DHT22;8048;50.644;6.184;2024-01-15T08:06:59;-0.20;99.90
15900;DHT22;8048;50.644;6.184;2024-01-15T08:09:25;-0.20;99.90
15900;DHT22;8048;50.644;6.184;2024-01-15T08:11:51;-0.20;99.90
15900;DHT22;8048;50.644;6.184;2024-01-15T08:14:17;-0.20;99.90
15900;DHT22;8048;50.644;6.184;2024-01-15T08:16:42;-0.20;99.90
15900;DHT22;8048;50.644;6.184;2024-01-15T08:19:09;-0.20;99.90
15900;DHT22;8048;50.644;6.184;2024-01-15T08:21:34;-0.10;99.90
15900;DHT22;8048;50.644;6.184;2024-01-15T08:24:00;-0.20;99.90
15900;DHT22;8048;50.644;6.184;2024-01-15T08:26:26;-0.20;99.90
15900;DHT22;8048;50.644;6.184;2024-01-15T08:28:52;-0.10;99.90
15900;DHT22;8048;50.644;6.184;2024-01-15T08:31:17;-0.10;99.90
15900;DHT22;8048;50.644;6.184;2024-01-15T08:33:43;-0.10;99.90
15900;DHT22;8048;50.644;6.184;2024-01-15T08:36:09;-0.10;99.90
15900;DHT22;8048;50.644;6.184;2024-01-15T08:38:35;-0.10;99.90
15900;DHT22;8048;50.644;6.184;2024-01-15T08:41:01;-0.10;99.90
15900;DHT22;8048;50.644;6.184;2024-01-15T08:43:27;-0.10;99.90
15900;DHT22;8048;50.644;6.184;2024-01-15T08:45:52;-0.10;99.90
15900;DHT22;8048;50.644;6.184;2024-01-15T08:48:18;-0.10;99.90
15900;DHT22;8048;50.644;6.184;2024-01-15T08:50:44;-0.10;99.90
15900;DHT22;8048;50.644;6.184;2024-01-15T08:53:13;0.00;99.90
15900;DHT22;8048;50.644;6.184;2024-01-15T08:55:38;-0.10;99.90
15900;DHT22;8048;50.644;6.184;2024-01-15T08:58:04;-0.10;99.90
15900;DHT22;8048;50.644;6.184;2024-01-15T09:00:30;-0.10;99.90
15900;DHT22;8048;50.644;6.184;2024-01-15T09:02:56;-0.10;99.90
15900;DHT22;8048;50.644;6.184;2024-01-15T09:05:22;0.00;99.90
15900;DHT22;8048;50.644;6.184;2024-01-15T09:07:48;0.00;99.90
15900;DHT22;8048;50.644;6.184;2024-01-15T09:10:14;0.00;99.90
15900;DHT22;8048;50.644;6.184;2024-01-15T09:12:39;0.00;99.90
15900;DHT22;8048;50.644;6.184;2024-01-15T09:15:05;0.00;99.90
15900;DHT22;8048;50.644;6.184;2024-01-15T09:17:32;0.10;99.90
15900;DHT22;8048;50.644;6.184;2024-01-15T09:19:58;0.00;99.90
15900;DHT22;8048;50.644;6.184;2024-01-15T09:22:23;0.00;99.90
15900;DHT22;8048;50.644;6.184;2024-01-15T09:24:49;0.10;99.90
15900;DHT22;8048;50.644;6.184;2024-01-15T09:27:14;0.10;99.90
15900;DHT22;8048;50.644;6.184;2024-01-15T09:29:41;0.10;99.90
15900;DHT22;8048;50.644;6.184;2024-01-15T09:32:07;0.10;99.90
15900;DHT22;8048;50.644;6.184;2024-01-15T09:34:34;0.10;99.90
15900;DHT22;8048;50.644;6.184;2024-01-15T09:36:59;0.10;99.90
15900;DHT22;8048;50.644;6.184;2024-01-15T09:39:25;0.10;99.90
15900;DHT22;8048;50.644;6.184;2024-01-15T09:41:52;0.10;99.90
15900;DHT22;8048;50.644;6.184;2024-01-15T09:44:18;0.10;99.90
15900;DHT22;8048;50.644;6.184;2024-01-15T09:46:45;0.10;99.90
15900;DHT22;8048;50.644;6.184;2024-01-15T09:49:12;0.10;99.90
15900;DHT22;8048;50.644;6.184;2024-01-15T09:51:38;0.10;99.90
15900;DHT22;8048;50.644;6.184;2024-01-15T09:54:05;0.20;99.90
15900;DHT22;8048;50.644;6.184;2024-01-15T09:56:30;0.20;99.90
15900;DHT22;8048;50.644;6.184;2024-01-15T09:58:57;0.20;99.90
15900;DHT22;8048;50.644;6.184;2024-01-15T10:01:23;0.30;99.90
15900;DHT22;8048;50.644;6.184;2024-01-15T10:03:50;0.20;99.90
15900;DHT22;8048;50.644;6.184;2024-01-15T10:06:16;0.20;99.90
15900;DHT22;8048;50.644;6.184;2024-01-15T10:08:49;0.20;99.90
15900;DHT22;8048;50.644;6.184;2024-01-15T10:11:15;0.20;99.90
15900;DHT22;8048;50.644;6.184;2024-01-15T10:13:48;0.30;99.90
15900;DHT22;8048;50.644;6.184;2024-01-15T10:16:18;0.20;99.90
15900;DHT22;8048;50.644;6.184;2024-01-15T10:18:44;0.20;99.90
15900;DHT22;8048;50.644;6.184;2024-01-15T10:23:45;0.20;99.90
15900;DHT22;8048;50.644;6.184;2024-01-15T10:26:10;0.30;99.90
15900;DHT22;8048;50.644;6.184;2024-01-15T10:28:39;0.40;99.90
15900;DHT22;8048;50.644;6.184;2024-01-15T10:31:06;0.40;99.90
15900;DHT22;8048;50.644;6.184;2024-01-15T10:33:31;0.40;99.90
15900;DHT22;8048;50.644;6.184;2024-01-15T10:35:58;0.40;99.90
15900;DHT22;8048;50.644;6.184;2024-01-15T10:38:25;0.30;99.90
15900;DHT22;8048;50.644;6.184;2024-01-15T10:41:09;0.30;99.90
15900;DHT22;8048;50.644;6.184;2024-01-15T10:43:35;0.30;99.90
15900;DHT22;8048;50.644;6.184;2024-01-15T10:46:01;0.30;99.90
15900;DHT22;8048;50.644;6.184;2024-01-15T10:48:26;0.30;99.90
15900;DHT22;8048;50.644;6.184;2024-01-15T10:50:53;0.40;99.90
15900;DHT22;8048;50.644;6.184;2024-01-15T10:53:19;0.30;99.90
15900;DHT22;8048;50.644;6.184;2024-01-15T10:55:46;0.30;99.90
15900;DHT22;8048;50.644;6.184;2024-01-15T10:58:15;0.30;99.90
15900;DHT22;8048;50.644;6.184;2024-01-15T11:00:41;0.30;99.90
15900;DHT22;8048;50.644;6.184;2024-01-15T11:03:06;0.30;99.90
15900;DHT22;8048;50.644;6.184;2024-01-15T11:05:41;0.40;99.90
15900;DHT22;8048;50.644;6.184;2024-01-15T11:08:07;0.50;99.90
15900;DHT22;8048;50.644;6.184;2024-01-15T11:10:47;0.60;99.90
15900;DHT22;8048;50.644;6.184;2024-01-15T11:13:21;0.70;99.90
15900;DHT22;8048;50.644;6.184;2024-01-15T11:16:09;0.80;99.90
15900;DHT22;8048;50.644;6.184;2024-01-15T11:18:43;0.90;99.90
15900;DHT22;8048;50.644;6.184;2024-01-15T11:29:30;0.90;99.90
15900;DHT22;8048;50.644;6.184;2024-01-15T11:34:20;1.00;99.90
15900;DHT22;8048;50.644;6.184;2024-01-15T11:42:03;0.90;99.90
15900;DHT22;8048;50.644;6.184;2024-01-15T11:44:29;0.80;99.90
15900;DHT22;8048;50.644;6.184;2024-01-15T11:47:06;0.70;99.90
15900;DHT22;8048;50.644;6.184;2024-01-15T11:51:59;0.70;99.90
15900;DHT22;8048;50.644;6.184;2024-01-15T11:54:29;0.70;99.90
15900;DHT22;8048;50.644;6.184;2024-01-15T11:56:56;0.70;99.90
15900;DHT22;8048;50.644;6.184;2024-01-15T11:59:23;0.70;99.90
15900;DHT22;8048;50.644;6.184;2024-01-15T12:01:48;0.90;99.90
15900;DHT22;8048;50.644;6.184;2024-01-15T12:04:14;0.90;99.90
15900;DHT22;8048;50.644;6.184;2024-01-15T12:06:42;1.00;99.90
15900;DHT22;8048;50.644;6.184;2024-01-15T12:09:08;1.00;99.90
15900;DHT22;8048;50.644;6.184;2024-01-15T12:11:36;1.00;99.90
15900;DHT22;8048;50.644;6.184;2024-01-15T12:14:03;0.90;99.90
15900;DHT22;8048;50.644;6.184;2024-01-15T12:16:29;0.90;99.90
15900;DHT22;8048;50.644;6.184;2024-01-15T12:18:55;1.00;99.90
15900;DHT22;8048;50.644;6.184;2024-01-15T12:21:20;1.00;99.90
15900;DHT22;8048;50.644;6.184;2024-01-15T12:23:46;1.00;99.90
15900;DHT22;8048;50.644;6.184;2024-01-15T12:26:13;1.10;99.90
15900;DHT22;8048;50.644;6.184;2024-01-15T12:28:39;1.10;99.90
15900;DHT22;8048;50.644;6.184;2024-01-15T12:31:05;1.10;99.90
15900;DHT22;8048;50.644;6.184;2024-01-15T12:33:31;1.00;99.90
15900;DHT22;8048;50.644;6.184;2024-01-15T12:35:56;1.00;99.90
15900;DHT22;8048;50.644;6.184;2024-01-15T12:38:22;1.00;99.90
15900;DHT22;8048;50.644;6.184;2024-01-15T12:40:48;0.90;99.90
15900;DHT22;8048;50.644;6.184;2024-01-15T12:43:13;0.90;99.90
15900;DHT22;8048;50.644;6.184;2024-01-15T12:45:40;0.80;99.90
15900;DHT22;8048;50.644;6.184;2024-01-15T12:48:06;0.70;99.90
15900;DHT22;8048;50.644;6.184;2024-01-15T12:50:33;0.70;99.90
15900;DHT22;8048;50.644;6.184;2024-01-15T12:52:59;0.60;99.90
15900;DHT22;8048;50.644;6.184;2024-01-15T12:55:25;0.50;99.90
15900;DHT22;8048;50.644;6.184;2024-01-15T12:57:50;0.60;99.90
15900;DHT22;8048;50.644;6.184;2024-01-15T13:00:20;0.60;99.90
15900;DHT22;8048;50.644;6.184;2024-01-15T13:02:45;0.60;99.90
15900;DHT22;8048;50.644;6.184;2024-01-15T13:05:11;0.50;99.90
15900;DHT22;8048;50.644;6.184;2024-01-15T13:07:37;0.40;99.90
15900;DHT22;8048;50.644;6.184;2024-01-15T13:10:04;0.40;99.90
15900;DHT22;8048;50.644;6.184;2024-01-15T13:12:29;0.40;99.90
15900;DHT22;8048;50.644;6.184;2024-01-15T13:14:55;0.50;99.90
15900;DHT22;8048;50.644;6.184;2024-01-15T13:17:21;0.40;99.90
15900;DHT22;8048;50.644;6.184;2024-01-15T13:19:47;0.40;99.90
15900;DHT22;8048;50.644;6.184;2024-01-15T13:22:12;0.40;99.90
15900;DHT22;8048;50.644;6.184;2024-01-15T13:24:39;0.30;99.90
15900;DHT22;8048;50.644;6.184;2024-01-15T13:27:05;0.40;99.90
15900;DHT22;8048;50.644;6.184;2024-01-15T13:29:31;0.40;99.90
15900;DHT22;8048;50.644;6.184;2024-01-15T13:31:58;0.40;99.90
15900;DHT22;8048;50.644;6.184;2024-01-15T13:34:23;0.40;99.90
15900;DHT22;8048;50.644;6.184;2024-01-15T13:36:49;0.40;99.90
15900;DHT22;8048;50.644;6.184;2024-01-15T13:39:19;0.40;99.90
15900;DHT22;8048;50.644;6.184;2024-01-15T13:41:48;0.40;99.90
15900;DHT22;8048;50.644;6.184;2024-01-15T13:44:14;0.50;99.90
15900;DHT22;8048;50.644;6.184;2024-01-15T13:46:40;0.50;99.90
15900;DHT22;8048;50.644;6.184;2024-01-15T13:49:05;0.50;99.90
15900;DHT22;8048;50.644;6.184;2024-01-15T13:51:37;0.60;99.90
15900;DHT22;8048;50.644;6.184;2024-01-15T13:54:03;0.50;99.90
15900;DHT22;8048;50.644;6.184;2024-01-15T13:56:30;0.60;99.90
15900;DHT22;8048;50.644;6.184;2024-01-15T13:58:58;0.50;99.90
15900;DHT22;8048;50.644;6.184;2024-01-15T14:01:23;0.50;99.90
15900;DHT22;8048;50.644;6.184;2024-01-15T14:03:49;0.50;99.90
15900;DHT22;8048;50.644;6.184;2024-01-15T14:06:14;0.50;99.90
15900;DHT22;8048;50.644;6.184;2024-01-15T14:08:40;0.40;99.90
15900;DHT22;8048;50.644;6.184;2024-01-15T14:11:06;0.40;99.90
15900;DHT22;8048;50.644;6.184;2024-01-15T14:13:32;0.40;99.90
15900;DHT22;8048;50.644;6.184;2024-01-15T14:15:58;0.40;99.90
15900;DHT22;8048;50.644;6.184;2024-01-15T14:18:25;0.40;99.90
15900;DHT22;8048;50.644;6.184;2024-01-15T14:20:51;0.40;99.90
15900;DHT22;8048;50.644;6.184;2024-01-15T14:23:17;0.40;99.90
15900;DHT22;8048;50.644;6.184;2024-01-15T14:25:42;0.40;99.90
15900;DHT22;8048;50.644;6.184;2024-01-15T14:28:08;0.40;99.90
15900;DHT22;8048;50.644;6.184;2024-01-15T14:30:33;0.40;99.90
15900;DHT22;8048;50.644;6.184;2024-01-15T14:32:59;0.40;99.90
15900;DHT22;8048;50.644;6.184;2024-01-15T14:35:24;0.40;99.90
15900;DHT22;8048;50.644;6.184;2024-01-15T14:37:50;0.40;99.90
15900;DHT22;8048;50.644;6.184;2024-01-15T14:40:15;0.40;99.90
15900;DHT22;8048;50.644;6.184;2024-01-15T14:42:41;0.40;99.90
15900;DHT22;8048;50.644;6.184;2024-01-15T14:45:07;0.40;99.90
15900;DHT22;8048;50.644;6.184;2024-01-15T14:47:40;0.40;99.90
15900;DHT22;8048;50.644;6.184;2024-01-15T14:50:07;0.30;99.90
15900;DHT22;8048;50.644;6.184;2024-01-15T14:52:33;0.30;99.90
15900;DHT22;8048;50.644;6.184;2024-01-15T14:55:02;0.30;99.90
15900;DHT22;8048;50.644;6.184;2024-01-15T14:57:28;0.20;99.90
15900;DHT22;8048;50.644;6.184;2024-01-15T14:59:53;0.20;99.90
15900;DHT22;8048;50.644;6.184;2024-01-15T15:02:19;0.20;99.90
15900;DHT22;8048;50.644;6.184;2024-01-15T15:04:46;0.30;99.90
15900;DHT22;8048;50.644;6.184;2024-01-15T15:07:11;0.20;99.90
15900;DHT22;8048;50.644;6.184;2024-01-15T15:09:37;0.20;99.90
15900;DHT22;8048;50.644;6.184;2024-01-15T15:12:03;0.20;99.90
15900;DHT22;8048;50.644;6.184;2024-01-15T15:14:30;0.20;99.90
15900;DHT22;8048;50.644;6.184;2024-01-15T15:16:57;0.20;99.90
15900;DHT22;8048;50.644;6.184;2024-01-15T15:19:23;0.10;99.90
15900;DHT22;8048;50.644;6.184;2024-01-15T15:21:48;0.00;99.90
15900;DHT22;8048;50.644;6.184;2024-01-15T15:24:14;0.10;99.90
15900;DHT22;8048;50.644;6.184;2024-01-15T15:26:39;0.10;99.90
15900;DHT22;8048;50.644;6.184;2024-01-15T15:29:05;0.10;99.90
15900;DHT22;8048;50.644;6.184;2024-01-15T15:31:30;0.20;99.90
15900;DHT22;8048;50.644;6.184;2024-01-15T15:33:56;0.10;99.90
15900;DHT22;8048;50.644;6.184;2024-01-15T15:36:21;0.10;99.90
15900;DHT22;8048;50.644;6.184;2024-01-15T15:38:47;0.10;99.90
15900;DHT22;8048;50.644;6.184;2024-01-15T15:41:12;0.20;99.90
15900;DHT22;8048;50.644;6.184;2024-01-15T15:43:38;0.20;99.90
15900;DHT22;8048;50.644;6.184;2024-01-15T15:46:03;0.10;99.90
15900;DHT22;8048;50.644;6.184;2024-01-15T15:48:31;0.20;99.90
15900;DHT22;8048;50.644;6.184;2024-01-15T15:50:56;0.20;99.90
15900;DHT22;8048;50.644;6.184;2024-01-15T15:53:25;0.20;99.90
15900;DHT22;8048;50.644;6.184;2024-01-15T15:55:50;0.10;99.90
15900;DHT22;8048;50.644;6.184;2024-01-15T15:58:16;0.10;99.90
15900;DHT22;8048;50.644;6.184;2024-01-15T16:00:42;0.20;99.90
15900;DHT22;8048;50.644;6.184;2024-01-15T16:03:07;0.10;99.90
15900;DHT22;8048;50.644;6.184;2024-01-15T16:05:33;0.10;99.90